createdAt,value
2022-12-09T00:00:19.780Z,-108.00
2022-12-09T00:05:26.988Z,-108.00
2022-12-09T00:10:34.301Z,-144.00
2022-12-09T00:15:41.499Z,-108.00
2022-12-09T00:20:48.626Z,-108.00
2022-12-09T00:25:56.022Z,-108.00
2022-12-09T00:31:03.124Z,-108.00
2022-12-09T00:36:10.267Z,-108.00
2022-12-09T00:41:17.549Z,-108.00
2022-12-09T00:46:24.643Z,-144.00
2022-12-09T00:51:32.066Z,-108.00
2022-12-09T00:56:39.168Z,-108.00
2022-12-09T01:01:46.219Z,-144.00
2022-12-09T01:06:53.381Z,-108.00
2022-12-09T01:12:00.508Z,-108.00
2022-12-09T01:17:07.823Z,-108.00
2022-12-09T01:22:14.948Z,-108.00
2022-12-09T01:27:22.405Z,-108.00
2022-12-09T01:32:29.715Z,-108.00
2022-12-09T01:37:36.719Z,-72.00
2022-12-09T01:42:43.669Z,-108.00
2022-12-09T01:47:51.241Z,-108.00
2022-12-09T01:52:58.171Z,-144.00
2022-12-09T01:58:05.776Z,7524.00
2022-12-09T02:03:12.991Z,-144.00
2022-12-09T02:08:20.217Z,-108.00
2022-12-09T02:13:27.420Z,-144.00
2022-12-09T02:18:34.326Z,-108.00
2022-12-09T02:23:41.512Z,-108.00
2022-12-09T02:28:48.835Z,-108.00
2022-12-09T02:33:55.888Z,-144.00
2022-12-09T02:39:03.400Z,-144.00
2022-12-09T02:44:10.298Z,-108.00
2022-12-09T02:49:17.568Z,-108.00
2022-12-09T02:54:25.135Z,-108.00
2022-12-09T02:59:32.174Z,-108.00
2022-12-09T03:04:39.343Z,-144.00
2022-12-09T03:09:46.489Z,-108.00
2022-12-09T03:14:53.858Z,-144.00
2022-12-09T03:20:00.963Z,-108.00
2022-12-09T03:25:08.190Z,-144.00
2022-12-09T03:30:15.806Z,-108.00
2022-12-09T03:35:22.670Z,-144.00
2022-12-09T03:40:30.067Z,-108.00
2022-12-09T03:45:37.173Z,-108.00
2022-12-09T03:50:44.424Z,-108.00
2022-12-09T03:55:51.587Z,-108.00
2022-12-09T04:00:58.655Z,-108.00
2022-12-09T04:06:05.743Z,-108.00
2022-12-09T04:11:13.116Z,-108.00
2022-12-09T04:16:20.256Z,-144.00
2022-12-09T04:21:27.450Z,-108.00
2022-12-09T04:26:34.912Z,-108.00
2022-12-09T04:31:41.896Z,-108.00
2022-12-09T04:36:49.329Z,-108.00
2022-12-09T04:41:56.461Z,-108.00
2022-12-09T04:47:03.683Z,-108.00
2022-12-09T04:52:10.659Z,-108.00
2022-12-09T04:57:17.763Z,-108.00
2022-12-09T05:02:25.322Z,-108.00
2022-12-09T05:07:32.416Z,-108.00
2022-12-09T05:12:39.427Z,-108.00
2022-12-09T05:17:46.894Z,-108.00
2022-12-09T05:22:53.803Z,-108.00
2022-12-09T05:28:01.117Z,-108.00
2022-12-09T05:33:08.389Z,-108.00
2022-12-09T05:38:15.703Z,-108.00
2022-12-09T05:43:22.769Z,-108.00
2022-12-09T05:48:30.210Z,-108.00
2022-12-09T05:53:37.323Z,-108.00
2022-12-09T05:58:44.427Z,-108.00
2022-12-09T06:03:52.093Z,-108.00
2022-12-09T06:08:58.829Z,-108.00
2022-12-09T06:14:06.023Z,-108.00
2022-12-09T06:19:13.221Z,-108.00
2022-12-09T06:24:20.604Z,-108.00
2022-12-09T06:29:27.617Z,-108.00
2022-12-09T06:34:35.012Z,-72.00
2022-12-09T06:39:42.482Z,0.00
2022-12-09T06:44:49.514Z,72.00
2022-12-09T06:50:01.123Z,180.00
2022-12-09T06:55:03.980Z,360.00
2022-12-09T07:00:11.478Z,612.00
2022-12-09T07:05:19.245Z,756.00
2022-12-09T07:10:25.933Z,1008.00
2022-12-09T07:15:32.856Z,1476.00
2022-12-09T07:20:40.308Z,2232.00
2022-12-09T07:25:47.292Z,3312.00
2022-12-09T07:30:54.517Z,3384.00
2022-12-09T07:36:01.798Z,2772.00
2022-12-09T07:41:09.494Z,2772.00
2022-12-09T07:46:16.535Z,3096.00
2022-12-09T07:51:23.542Z,4284.00
2022-12-09T07:56:30.922Z,5508.00
2022-12-09T08:01:38.000Z,6156.00
2022-12-09T08:06:45.551Z,6804.00
2022-12-09T08:11:52.507Z,7884.00
2022-12-09T08:16:59.713Z,7416.00
2022-12-09T08:22:06.937Z,7956.00
2022-12-09T08:27:14.181Z,9864.00
2022-12-09T08:32:21.753Z,8892.00
2022-12-09T08:37:28.604Z,8820.00
2022-12-09T08:42:35.956Z,10116.00
2022-12-09T08:47:43.632Z,12132.00
2022-12-09T08:52:50.614Z,13464.00
2022-12-09T08:57:57.471Z,11628.00
2022-12-09T09:03:04.967Z,10980.00
2022-12-09T09:08:12.042Z,11376.00
2022-12-09T09:13:19.505Z,10296.00
2022-12-09T09:18:26.948Z,9576.00
2022-12-09T09:23:34.003Z,8964.00
2022-12-09T09:28:40.714Z,9324.00
2022-12-09T09:33:48.194Z,9324.00
2022-12-09T09:38:55.318Z,9432.00
2022-12-09T09:44:02.834Z,9432.00
2022-12-09T09:49:09.723Z,9360.00
2022-12-09T09:54:16.867Z,9432.00
2022-12-09T09:59:24.070Z,9216.00
2022-12-09T10:04:31.652Z,10224.00
2022-12-09T10:09:38.680Z,11016.00
2022-12-09T10:14:45.972Z,11556.00
2022-12-09T10:19:53.550Z,12996.00
2022-12-09T10:25:00.780Z,13320.00
2022-12-09T10:30:07.961Z,12672.00
2022-12-09T10:35:15.288Z,14508.00
2022-12-09T10:40:22.093Z,14724.00
2022-12-09T10:45:45.588Z,14940.00
2022-12-09T10:50:36.515Z,14868.00
2022-12-09T10:55:43.454Z,15984.00
2022-12-09T11:00:50.603Z,14724.00
2022-12-09T11:05:58.122Z,14328.00
2022-12-09T11:11:05.264Z,15120.00
2022-12-09T11:16:12.588Z,16560.00
2022-12-09T11:21:19.727Z,17856.00
2022-12-09T11:26:27.170Z,17208.00
2022-12-09T11:31:34.467Z,17172.00
2022-12-09T11:36:44.116Z,17676.00
2022-12-09T11:41:48.347Z,16524.00
2022-12-09T11:46:55.587Z,17316.00
2022-12-09T11:52:02.756Z,17136.00
2022-12-09T11:57:09.926Z,16596.00
2022-12-09T12:02:17.427Z,16416.00
2022-12-09T12:07:24.581Z,16668.00
2022-12-09T12:12:31.759Z,16704.00
2022-12-09T12:17:39.012Z,16884.00
2022-12-09T12:22:50.193Z,16992.00
2022-12-09T12:27:53.391Z,17460.00
2022-12-09T12:38:07.821Z,17640.00
2022-12-09T12:43:15.008Z,17568.00
2022-12-09T12:48:22.188Z,16776.00
2022-12-09T12:53:29.318Z,15732.00
2022-12-09T12:58:36.503Z,15804.00
2022-12-09T13:03:43.695Z,14832.00
2022-12-09T13:08:50.979Z,14652.00
2022-12-09T13:13:58.173Z,12996.00
2022-12-09T13:19:05.398Z,12600.00
2022-12-09T13:24:12.650Z,12348.00
2022-12-09T13:29:19.859Z,11412.00
2022-12-09T13:34:27.127Z,11664.00
2022-12-09T13:39:34.295Z,10908.00
2022-12-09T13:44:41.435Z,9972.00
2022-12-09T13:49:48.607Z,11268.00
2022-12-09T13:54:55.799Z,10800.00
2022-12-09T14:00:02.971Z,9252.00
2022-12-09T14:05:10.149Z,8784.00
2022-12-09T14:10:17.379Z,9576.00
2022-12-09T14:15:24.564Z,10044.00
2022-12-09T14:20:31.766Z,9576.00
2022-12-09T14:25:39.083Z,8640.00
2022-12-09T14:30:46.239Z,7596.00
2022-12-09T14:35:53.380Z,6876.00
2022-12-09T14:41:00.575Z,6228.00
2022-12-09T14:46:07.838Z,5292.00
2022-12-09T14:51:14.913Z,4644.00
2022-12-09T14:56:22.104Z,4212.00
2022-12-09T15:01:29.334Z,3996.00
2022-12-09T15:06:36.566Z,2880.00
2022-12-09T15:11:44.143Z,2412.00
2022-12-09T15:16:51.626Z,1836.00
2022-12-09T15:21:59.249Z,1080.00
2022-12-09T15:27:06.886Z,756.00
2022-12-09T15:32:14.215Z,432.00
2022-12-09T15:37:21.674Z,216.00
2022-12-09T15:42:29.018Z,36.00
2022-12-09T15:47:36.492Z,-36.00
2022-12-09T15:52:44.011Z,432.00
2022-12-09T15:57:51.675Z,360.00
2022-12-09T16:02:59.149Z,360.00
2022-12-09T16:08:06.215Z,360.00
2022-12-09T16:13:13.777Z,360.00
2022-12-09T16:18:21.367Z,360.00
2022-12-09T16:23:28.976Z,360.00
2022-12-09T16:28:36.331Z,-36.00
2022-12-09T16:33:43.791Z,-36.00
2022-12-09T16:38:51.408Z,-72.00
2022-12-09T16:43:59.042Z,-36.00
2022-12-09T16:49:06.327Z,-36.00
2022-12-09T16:54:19.383Z,-72.00
2022-12-09T16:59:21.489Z,-108.00
2022-12-09T17:04:29.071Z,-108.00
2022-12-09T17:09:37.711Z,-108.00
2022-12-09T17:14:45.360Z,-108.00
2022-12-09T17:19:52.933Z,-108.00
2022-12-09T17:25:00.558Z,-108.00
2022-12-09T17:30:08.206Z,-108.00
2022-12-09T17:35:16.045Z,-108.00
2022-12-09T17:40:22.649Z,-108.00
2022-12-09T17:45:30.189Z,-108.00
2022-12-09T17:50:37.706Z,-108.00
2022-12-09T17:55:45.011Z,-108.00
2022-12-09T18:00:52.561Z,1080.00
2022-12-09T18:05:59.720Z,7236.00
2022-12-09T18:11:07.062Z,7200.00
2022-12-09T18:16:14.361Z,7596.00
2022-12-09T18:21:21.572Z,7560.00
2022-12-09T18:26:32.963Z,7560.00
2022-12-09T18:31:36.095Z,7488.00
2022-12-09T18:36:44.170Z,7092.00
2022-12-09T18:41:51.528Z,6984.00
2022-12-09T18:46:58.836Z,7236.00
2022-12-09T18:52:06.114Z,7272.00
2022-12-09T18:57:13.383Z,7308.00
2022-12-09T19:02:20.972Z,7236.00
2022-12-09T19:07:32.251Z,7164.00
2022-12-09T19:12:47.077Z,7128.00
2022-12-09T19:17:43.993Z,6984.00
2022-12-09T19:22:51.585Z,7092.00
2022-12-09T19:27:58.890Z,6948.00
2022-12-09T19:33:07.462Z,6948.00
2022-12-09T19:38:15.040Z,7056.00
2022-12-09T19:43:22.760Z,7020.00
2022-12-09T19:48:30.307Z,6984.00
2022-12-09T19:53:37.600Z,7056.00
2022-12-09T19:58:44.803Z,7200.00
2022-12-09T20:03:52.327Z,7164.00
2022-12-09T20:09:00.012Z,7020.00
2022-12-09T20:14:07.624Z,6156.00
2022-12-09T20:19:15.264Z,6084.00
2022-12-09T20:24:22.852Z,5940.00
2022-12-09T20:29:36.932Z,6084.00
2022-12-09T20:34:37.518Z,15372.00
2022-12-09T20:39:44.982Z,15588.00
2022-12-09T20:44:52.379Z,14976.00
2022-12-09T20:49:59.932Z,14904.00
2022-12-09T20:55:07.622Z,15480.00
2022-12-09T21:00:14.948Z,14868.00
2022-12-09T21:05:22.466Z,6192.00
2022-12-09T21:10:30.002Z,6588.00
2022-12-09T21:15:37.508Z,10944.00
2022-12-09T21:20:45.108Z,15444.00
2022-12-09T21:25:52.691Z,13860.00
2022-12-09T21:31:00.310Z,14040.00
2022-12-09T21:36:07.951Z,6084.00
2022-12-09T21:41:15.637Z,6084.00
2022-12-09T21:46:23.002Z,6516.00
2022-12-09T21:51:30.239Z,6444.00
2022-12-09T21:56:37.407Z,6408.00
2022-12-09T22:01:44.621Z,12168.00
2022-12-09T22:06:51.798Z,10944.00
2022-12-09T22:12:00.535Z,10620.00
2022-12-09T22:17:07.685Z,10440.00
2022-12-09T22:22:14.917Z,10476.00
2022-12-09T22:27:26.015Z,6660.00
2022-12-09T22:32:41.115Z,6084.00
2022-12-09T22:37:44.648Z,6408.00
2022-12-09T22:42:53.879Z,6516.00
2022-12-09T22:48:01.064Z,6480.00
2022-12-09T22:53:08.234Z,6228.00
2022-12-09T22:58:15.431Z,6156.00
2022-12-09T23:03:22.706Z,6336.00
2022-12-09T23:08:29.792Z,6192.00
2022-12-09T23:13:40.976Z,6264.00
2022-12-09T23:18:44.225Z,6516.00
2022-12-09T23:23:51.454Z,6300.00
2022-12-09T23:28:58.667Z,7128.00
2022-12-09T23:34:05.863Z,7272.00
2022-12-09T23:39:13.050Z,7308.00
2022-12-09T23:44:20.244Z,7272.00
2022-12-09T23:49:27.405Z,7308.00
2022-12-09T23:54:34.689Z,7344.00
2022-12-09T23:59:41.920Z,7200.00
